Time;durP1;ratioP1;P1;durP2;ratioP2;P2;SDS_P1;SDS_P2;PMS_P1;PMS_P2;Temp;Humidity;BMP_temperature;BMP_pressure;BME280_temperature;BME280_humidity;BME280_pressure;Samples;Min_cycle;Max_cycle;Signal;HPM_P1;HPM_P2
2022/08/20 00:02:29;;;;;;;0.85;0.80;;;;;;;;;;6033919;23;20175;-88
2022/08/20 00:05:36;;;;;;;1.13;0.98;;;;;;;;;;6033387;23;20179;-90
2022/08/20 00:08:43;;;;;;;12.70;7.45;;;;;;;;;;6034056;23;20624;-90
2022/08/20 00:11:48;;;;;;;11.82;7.47;;;;;;;;;;6033952;23;20247;-91
2022/08/20 00:14:55;;;;;;;10.18;8.07;;;;;;;;;;6037339;23;20167;-89
2022/08/20 00:18:02;;;;;;;14.15;9.95;;;;;;;;;;6032971;23;20200;-88
2022/08/20 00:21:09;;;;;;;14.40;10.25;;;;;;;;;;6035163;23;20180;-91
2022/08/20 00:24:14;;;;;;;13.73;9.98;;;;;;;;;;6034376;23;20194;-92
2022/08/20 00:27:20;;;;;;;14.48;10.02;;;;;;;;;;6051317;23;20179;-90
2022/08/20 00:30:28;;;;;;;20.23;9.88;;;;;;;;;;6035387;23;20268;-89
2022/08/20 00:33:33;;;;;;;13.90;10.18;;;;;;;;;;6032887;23;20174;-89
2022/08/20 00:36:40;;;;;;;15.70;10.23;;;;;;;;;;6034829;23;20239;-90
2022/08/20 00:39:46;;;;;;;15.15;10.20;;;;;;;;;;6035545;23;20207;-89
2022/08/20 00:42:54;;;;;;;13.43;9.60;;;;;;;;;;6035669;23;20699;-90
2022/08/20 00:46:02;;;;;;;13.80;9.35;;;;;;;;;;6035227;23;20240;-90
2022/08/20 00:49:08;;;;;;;16.70;9.77;;;;;;;;;;6031947;23;20179;-89
2022/08/20 00:52:16;;;;;;;17.13;9.52;;;;;;;;;;6031372;23;20175;-88
2022/08/20 00:55:23;;;;;;;13.13;9.30;;;;;;;;;;6031453;23;20674;-90
2022/08/20 00:58:29;;;;;;;13.55;9.48;;;;;;;;;;6034918;23;20180;-89
2022/08/20 01:01:35;;;;;;;16.70;9.60;;;;;;;;;;6031487;23;20262;-89
2022/08/20 01:04:42;;;;;;;13.82;9.52;;;;;;;;;;6030941;23;20178;-88
2022/08/20 01:07:48;;;;;;;12.85;9.70;;;;;;;;;;6030715;23;20175;-89
2022/08/20 01:11:04;;;;;;;17.02;9.52;;;;;;;;;;6032527;23;20175;-89
2022/08/20 01:14:26;;;;;;;16.88;10.38;;;;;;;;;;6032152;23;20283;-90
2022/08/20 01:17:35;;;;;;;15.95;10.10;;;;;;;;;;6032028;23;20175;-88
2022/08/20 01:20:43;;;;;;;14.02;10.77;;;;;;;;;;6031267;23;20172;-87
2022/08/20 01:23:51;;;;;;;18.15;10.77;;;;;;;;;;6031622;23;20199;-89
2022/08/20 01:26:57;;;;;;;14.00;10.45;;;;;;;;;;6048446;23;20652;-90
2022/08/20 01:30:05;;;;;;;14.10;10.35;;;;;;;;;;6051037;23;20175;-89
2022/08/20 01:33:11;;;;;;;15.27;10.30;;;;;;;;;;6048508;23;20179;-90
2022/08/20 01:36:17;;;;;;;17.30;11.05;;;;;;;;;;6046877;23;20199;-88
2022/08/20 01:39:24;;;;;;;15.02;10.43;;;;;;;;;;6047525;23;20257;-89
2022/08/20 01:42:34;;;;;;;16.75;10.60;;;;;;;;;;6048511;23;20249;-88
2022/08/20 01:45:39;;;;;;;16.52;10.60;;;;;;;;;;6048811;23;20167;-90
2022/08/20 01:48:45;;;;;;;16.15;10.73;;;;;;;;;;6048738;23;20208;-89
2022/08/20 01:51:50;;;;;;;17.67;10.07;;;;;;;;;;6047607;23;20175;-89
2022/08/20 01:54:57;;;;;;;13.88;9.65;;;;;;;;;;6047928;23;20246;-90
2022/08/20 01:58:06;;;;;;;14.05;10.50;;;;;;;;;;6048702;23;20188;-88
2022/08/20 02:01:19;;;;;;;14.48;10.48;;;;;;;;;;6048256;23;20177;-88
2022/08/20 02:04:25;;;;;;;16.17;10.20;;;;;;;;;;6047848;23;20269;-90
2022/08/20 02:07:31;;;;;;;12.98;10.18;;;;;;;;;;6046764;23;20191;-90
2022/08/20 02:10:36;;;;;;;14.90;10.52;;;;;;;;;;6047062;23;20204;-90
2022/08/20 02:13:43;;;;;;;13.38;9.13;;;;;;;;;;6048405;23;20167;-88
2022/08/20 02:16:50;;;;;;;15.88;9.82;;;;;;;;;;6048168;23;20195;-89
2022/08/20 02:19:58;;;;;;;16.00;10.07;;;;;;;;;;6049333;23;20171;-91
2022/08/20 02:23:04;;;;;;;14.95;9.82;;;;;;;;;;6048453;23;20196;-90
2022/08/20 02:26:12;;;;;;;13.50;9.63;;;;;;;;;;6050415;23;20208;-90
2022/08/20 02:29:22;;;;;;;14.15;10.18;;;;;;;;;;6049530;23;20171;-89
2022/08/20 02:32:27;;;;;;;13.60;9.15;;;;;;;;;;6047579;23;20182;-91
2022/08/20 02:35:33;;;;;;;15.13;9.60;;;;;;;;;;6048185;23;20187;-90
2022/08/20 02:38:38;;;;;;;16.23;10.18;;;;;;;;;;6050739;23;20171;-89
2022/08/20 02:41:43;;;;;;;13.05;9.60;;;;;;;;;;6049202;23;20171;-90
2022/08/20 02:44:50;;;;;;;17.20;10.50;;;;;;;;;;6048501;23;20179;-90
2022/08/20 02:47:56;;;;;;;18.65;10.60;;;;;;;;;;6048066;23;20651;-88
2022/08/20 02:51:02;;;;;;;16.77;10.27;;;;;;;;;;6048027;23;20171;-90
2022/08/20 02:54:07;;;;;;;26.98;14.23;;;;;;;;;;6048161;23;20171;-91
2022/08/20 02:57:15;;;;;;;18.88;10.90;;;;;;;;;;6048873;23;20639;-88
2022/08/20 03:00:24;;;;;;;13.23;8.90;;;;;;;;;;6049645;23;20175;-91
2022/08/20 03:03:29;;;;;;;14.77;8.68;;;;;;;;;;6065569;23;20197;-91
2022/08/20 03:06:35;;;;;;;11.88;8.15;;;;;;;;;;6049861;23;20171;-89
2022/08/20 03:09:40;;;;;;;14.88;8.43;;;;;;;;;;6051426;23;20174;-89
2022/08/20 03:12:45;;;;;;;11.35;7.07;;;;;;;;;;6049384;23;20196;-88
2022/08/20 03:15:53;;;;;;;12.18;7.80;;;;;;;;;;6049971;23;20190;-89
2022/08/20 03:18:58;;;;;;;12.43;7.28;;;;;;;;;;6049211;23;20178;-90
2022/08/20 03:22:03;;;;;;;11.43;7.78;;;;;;;;;;6048722;23;20519;-87
2022/08/20 03:25:09;;;;;;;12.48;7.97;;;;;;;;;;6050533;23;20278;-89
2022/08/20 03:28:14;;;;;;;10.75;7.45;;;;;;;;;;6051178;23;20171;-90
2022/08/20 03:31:21;;;;;;;14.90;7.95;;;;;;;;;;6050821;23;20179;-90
2022/08/20 03:34:26;;;;;;;10.00;6.82;;;;;;;;;;6049427;23;20251;-91
2022/08/20 03:37:32;;;;;;;13.55;7.22;;;;;;;;;;6051364;23;20250;-88
2022/08/20 03:40:38;;;;;;;12.73;6.85;;;;;;;;;;6050046;23;20506;-88
2022/08/20 03:43:43;;;;;;;12.07;7.25;;;;;;;;;;6049868;23;20509;-89
2022/08/20 03:46:50;;;;;;;12.20;7.53;;;;;;;;;;6051917;23;20171;-87
2022/08/20 03:49:58;;;;;;;11.55;6.78;;;;;;;;;;6052430;23;20178;-90
2022/08/20 03:53:03;;;;;;;11.02;7.00;;;;;;;;;;6051662;23;20178;-88
2022/08/20 03:56:09;;;;;;;9.02;6.43;;;;;;;;;;6051285;23;20700;-89
2022/08/20 03:59:14;;;;;;;11.90;6.00;;;;;;;;;;6052680;23;20175;-90
2022/08/20 04:02:21;;;;;;;10.15;6.75;;;;;;;;;;6048114;23;20175;-89
2022/08/20 04:05:25;;;;;;;9.80;6.43;;;;;;;;;;6050921;23;20171;-90
2022/08/20 04:08:30;;;;;;;12.18;7.05;;;;;;;;;;6051376;23;20200;-89
2022/08/20 04:11:36;;;;;;;10.10;7.07;;;;;;;;;;6051392;23;20175;-88
2022/08/20 04:14:41;;;;;;;10.50;6.82;;;;;;;;;;6052055;23;20182;-87
2022/08/20 04:17:50;;;;;;;12.82;7.80;;;;;;;;;;6052730;23;20199;-90
2022/08/20 04:20:56;;;;;;;11.85;7.90;;;;;;;;;;6052284;23;20175;-90
2022/08/20 04:24:01;;;;;;;12.23;7.43;;;;;;;;;;6050811;23;20315;-91
2022/08/20 04:27:07;;;;;;;11.07;7.10;;;;;;;;;;6050020;23;20171;-90
2022/08/20 04:30:14;;;;;;;10.20;7.13;;;;;;;;;;6049716;23;20179;-90
2022/08/20 04:33:20;;;;;;;15.88;6.78;;;;;;;;;;6050971;23;20175;-89
2022/08/20 04:36:25;;;;;;;11.77;7.40;;;;;;;;;;6049935;23;20195;-88
2022/08/20 04:39:30;;;;;;;14.13;7.70;;;;;;;;;;6049738;23;20289;-89
2022/08/20 04:42:36;;;;;;;14.75;7.75;;;;;;;;;;6049080;23;20171;-90
2022/08/20 04:45:42;;;;;;;13.13;6.88;;;;;;;;;;6051013;23;20179;-88
2022/08/20 04:48:48;;;;;;;10.27;6.93;;;;;;;;;;6050206;23;20175;-88
2022/08/20 04:51:54;;;;;;;10.38;6.63;;;;;;;;;;6048915;23;20171;-90
2022/08/20 04:55:00;;;;;;;11.00;6.40;;;;;;;;;;6050420;23;20212;-90
2022/08/20 04:58:06;;;;;;;9.18;6.05;;;;;;;;;;6053990;23;20187;-92
2022/08/20 05:01:12;;;;;;;10.43;5.07;;;;;;;;;;6049870;23;20179;-89
2022/08/20 05:04:19;;;;;;;11.50;5.43;;;;;;;;;;6051598;23;20691;-89
2022/08/20 05:07:24;;;;;;;9.05;5.22;;;;;;;;;;6051912;23;20253;-89
2022/08/20 05:10:30;;;;;;;7.05;4.78;;;;;;;;;;6051494;23;20486;-90
2022/08/20 05:13:35;;;;;;;6.90;4.38;;;;;;;;;;6052169;23;20244;-91
2022/08/20 05:16:41;;;;;;;6.18;4.20;;;;;;;;;;6048904;23;20328;-90
2022/08/20 05:19:47;;;;;;;5.68;3.90;;;;;;;;;;6051223;23;20179;-90
2022/08/20 05:22:54;;;;;;;8.52;4.55;;;;;;;;;;6049182;23;20236;-90
2022/08/20 05:26:00;;;;;;;9.63;3.90;;;;;;;;;;6049590;23;20166;-88
2022/08/20 05:29:05;;;;;;;5.07;4.00;;;;;;;;;;6050109;23;20623;-91
2022/08/20 05:32:11;;;;;;;6.65;4.65;;;;;;;;;;6049763;23;20496;-90
2022/08/20 05:35:18;;;;;;;11.35;4.38;;;;;;;;;;6050345;23;20159;-89
2022/08/20 05:38:25;;;;;;;9.80;4.45;;;;;;;;;;6049577;23;20198;-90
2022/08/20 05:41:31;;;;;;;7.07;4.25;;;;;;;;;;6048174;23;20170;-90
2022/08/20 05:44:36;;;;;;;8.98;4.63;;;;;;;;;;6051381;23;20160;-90
2022/08/20 05:47:43;;;;;;;9.05;4.57;;;;;;;;;;6051007;23;20201;-89
2022/08/20 05:50:51;;;;;;;9.43;4.80;;;;;;;;;;6048790;23;20316;-89
2022/08/20 05:53:56;;;;;;;10.93;5.47;;;;;;;;;;6052060;23;20288;-89
2022/08/20 05:57:01;;;;;;;8.43;4.78;;;;;;;;;;6056132;23;20202;-90
2022/08/20 06:00:07;;;;;;;8.02;4.22;;;;;;;;;;6049933;23;20160;-89
2022/08/20 06:06:40;;;;;;;7.85;4.90;;;;;;;;;;6048676;23;20188;-89
2022/08/20 06:09:45;;;;;;;8.50;4.25;;;;;;;;;;6050350;23;20178;-89
2022/08/20 06:12:52;;;;;;;8.00;5.03;;;;;;;;;;6064319;23;20250;-89
2022/08/20 06:15:57;;;;;;;6.88;4.15;;;;;;;;;;6050842;23;20176;-89
2022/08/20 06:19:02;;;;;;;7.05;4.70;;;;;;;;;;6050332;23;20171;-90
2022/08/20 06:22:09;;;;;;;8.65;5.43;;;;;;;;;;6049961;23;20171;-91
2022/08/20 06:25:14;;;;;;;11.82;4.95;;;;;;;;;;6051393;23;20211;-89
2022/08/20 06:28:19;;;;;;;6.60;4.68;;;;;;;;;;6051918;23;20174;-89
2022/08/20 06:31:24;;;;;;;8.50;5.00;;;;;;;;;;6052215;23;20175;-90
2022/08/20 06:34:29;;;;;;;10.77;5.80;;;;;;;;;;6050475;23;20190;-89
2022/08/20 06:37:37;;;;;;;7.82;5.00;;;;;;;;;;6050122;23;20203;-90
2022/08/20 06:40:42;;;;;;;7.65;5.25;;;;;;;;;;6048688;23;20261;-90
2022/08/20 06:43:48;;;;;;;8.88;5.05;;;;;;;;;;6049357;23;20627;-90
2022/08/20 06:46:55;;;;;;;13.30;5.35;;;;;;;;;;6049946;23;20216;-89
2022/08/20 06:50:01;;;;;;;7.70;4.88;;;;;;;;;;6068018;23;20249;-90
2022/08/20 06:53:08;;;;;;;7.90;4.72;;;;;;;;;;6051014;23;20648;-88
2022/08/20 06:56:14;;;;;;;6.55;4.88;;;;;;;;;;6049777;23;20175;-89
2022/08/20 06:59:22;;;;;;;7.90;4.53;;;;;;;;;;6051119;23;20249;-87
2022/08/20 07:02:28;;;;;;;7.20;4.65;;;;;;;;;;6051356;23;20191;-89
2022/08/20 07:05:35;;;;;;;10.85;4.50;;;;;;;;;;6054280;23;20173;-88
2022/08/20 07:08:41;;;;;;;8.48;4.53;;;;;;;;;;6051045;23;20179;-88
2022/08/20 07:11:48;;;;;;;6.60;4.03;;;;;;;;;;6055469;23;20155;-88
2022/08/20 07:14:53;;;;;;;9.73;4.93;;;;;;;;;;6056430;23;20174;-88
2022/08/20 07:18:00;;;;;;;6.93;3.90;;;;;;;;;;6052997;23;20203;-88
2022/08/20 07:21:06;;;;;;;9.82;4.22;;;;;;;;;;6050120;23;20167;-89
2022/08/20 07:24:13;;;;;;;5.20;3.88;;;;;;;;;;6048047;23;20267;-89
2022/08/20 07:27:21;;;;;;;8.40;3.53;;;;;;;;;;6051217;23;20227;-90
2022/08/20 07:33:50;;;;;;;10.07;3.38;;;;;;;;;;6052269;23;20171;-88
2022/08/20 07:36:59;;;;;;;5.85;3.72;;;;;;;;;;6054963;23;20176;-89
2022/08/20 07:40:06;;;;;;;5.00;3.25;;;;;;;;;;6051001;23;20489;-90
2022/08/20 07:43:14;;;;;;;6.65;3.47;;;;;;;;;;6052281;23;20158;-90
2022/08/20 07:46:20;;;;;;;6.57;3.35;;;;;;;;;;6053735;23;20171;-90
2022/08/20 07:49:26;;;;;;;7.22;3.58;;;;;;;;;;6050749;23;20179;-91
2022/08/20 07:52:34;;;;;;;6.72;3.50;;;;;;;;;;6053242;23;20650;-90
2022/08/20 07:55:41;;;;;;;3.95;3.15;;;;;;;;;;6050192;23;20248;-91
2022/08/20 07:58:49;;;;;;;5.38;4.15;;;;;;;;;;6052621;23;20224;-89
2022/08/20 08:01:55;;;;;;;4.63;3.13;;;;;;;;;;6052458;23;20963;-89
2022/08/20 08:05:03;;;;;;;5.45;4.03;;;;;;;;;;6055421;23;20522;-89
2022/08/20 08:08:12;;;;;;;5.97;3.40;;;;;;;;;;6059021;23;20167;-89
2022/08/20 08:11:20;;;;;;;7.65;3.80;;;;;;;;;;6053461;23;20615;-89
2022/08/20 08:14:30;;;;;;;5.30;3.60;;;;;;;;;;6053467;23;20164;-90
2022/08/20 08:17:39;;;;;;;7.80;3.90;;;;;;;;;;6049679;23;20203;-89
2022/08/20 08:20:47;;;;;;;6.03;3.45;;;;;;;;;;6050262;23;20171;-89
2022/08/20 08:23:52;;;;;;;7.65;5.03;;;;;;;;;;6051266;23;20195;-88
2022/08/20 08:27:06;;;;;;;8.70;3.60;;;;;;;;;;6052857;23;20229;-89
2022/08/20 08:30:12;;;;;;;6.97;3.42;;;;;;;;;;6052457;23;20221;-91
2022/08/20 08:33:28;;;;;;;8.82;4.03;;;;;;;;;;6053902;23;20180;-90
2022/08/20 08:36:33;;;;;;;6.32;3.67;;;;;;;;;;6056388;23;20175;-88
2022/08/20 08:39:42;;;;;;;9.05;4.18;;;;;;;;;;6052526;23;20175;-90
2022/08/20 08:42:56;;;;;;;4.68;3.40;;;;;;;;;;6052794;23;20172;-89
2022/08/20 08:46:04;;;;;;;7.90;4.50;;;;;;;;;;6052874;23;20167;-89
2022/08/20 08:49:11;;;;;;;5.60;3.72;;;;;;;;;;6051335;23;20183;-89
2022/08/20 08:52:19;;;;;;;6.93;4.15;;;;;;;;;;6050687;23;20175;-90
2022/08/20 08:55:24;;;;;;;5.28;3.53;;;;;;;;;;6049409;23;20273;-90
2022/08/20 08:58:34;;;;;;;5.45;4.10;;;;;;;;;;6052584;23;20753;-90
2022/08/20 13:16:37;;;;;;;13.00;8.77;;;;;;;;;;6127770;23;20218;-90
2022/08/20 13:19:45;;;;;;;11.57;8.93;;;;;;;;;;6116023;23;20234;-92
2022/08/20 13:22:51;;;;;;;13.25;8.93;;;;;;;;;;6118598;23;20636;-91
2022/08/20 13:25:59;;;;;;;11.35;8.43;;;;;;;;;;6115050;23;20190;-90
2022/08/20 13:29:08;;;;;;;17.30;9.50;;;;;;;;;;6117750;23;20165;-91
2022/08/20 13:32:18;;;;;;;14.40;9.55;;;;;;;;;;6119364;23;20177;-91
2022/08/20 13:35:25;;;;;;;14.80;9.50;;;;;;;;;;6117377;23;20301;-91
2022/08/20 13:38:33;;;;;;;15.25;10.10;;;;;;;;;;6115679;23;20201;-91
2022/08/20 13:41:38;;;;;;;17.20;11.40;;;;;;;;;;6118361;23;20306;-91
2022/08/20 13:44:46;;;;;;;18.13;11.95;;;;;;;;;;6116549;23;20178;-91
2022/08/20 13:48:22;;;;;;;16.65;10.77;;;;;;;;;;6116452;23;20209;-90
2022/08/20 13:51:30;;;;;;;16.98;11.57;;;;;;;;;;6116024;23;20678;-91
2022/08/20 13:54:41;;;;;;;17.70;11.70;;;;;;;;;;6115125;23;20598;-90
2022/08/20 13:57:48;;;;;;;15.60;11.40;;;;;;;;;;6115129;23;20189;-90
2022/08/20 14:00:57;;;;;;;18.30;11.00;;;;;;;;;;6118743;23;20169;-90
2022/08/20 14:04:02;;;;;;;22.58;12.55;;;;;;;;;;6117943;23;20173;-89
2022/08/20 14:07:13;;;;;;;17.20;11.27;;;;;;;;;;6119658;23;20248;-92
2022/08/20 14:10:21;;;;;;;15.23;11.32;;;;;;;;;;6118398;23;20170;-91
2022/08/20 14:13:29;;;;;;;14.65;10.77;;;;;;;;;;6118601;23;20170;-89
2022/08/20 14:16:34;;;;;;;15.45;10.70;;;;;;;;;;6116342;23;20196;-90
2022/08/20 14:19:42;;;;;;;16.17;10.45;;;;;;;;;;6118354;23;20192;-90
2022/08/20 14:22:49;;;;;;;15.70;10.50;;;;;;;;;;6119540;23;20172;-89
2022/08/20 14:25:59;;;;;;;18.13;10.57;;;;;;;;;;6105001;23;20184;-88
2022/08/20 14:29:04;;;;;;;13.38;9.20;;;;;;;;;;6120152;23;20257;-89
2022/08/20 14:32:10;;;;;;;12.82;9.30;;;;;;;;;;6121658;23;20172;-90
2022/08/20 14:35:17;;;;;;;12.38;8.73;;;;;;;;;;6121522;23;20177;-90
2022/08/20 14:38:27;;;;;;;15.15;8.88;;;;;;;;;;6121980;23;20204;-91
2022/08/20 14:41:32;;;;;;;14.20;8.32;;;;;;;;;;6122510;23;20181;-92
2022/08/20 14:44:42;;;;;;;12.23;7.70;;;;;;;;;;6121408;23;20266;-91
2022/08/20 14:48:21;;;;;;;14.07;7.80;;;;;;;;;;6125321;23;20169;-91
2022/08/20 14:51:28;;;;;;;9.93;7.30;;;;;;;;;;6121909;23;20161;-89
2022/08/20 14:54:44;;;;;;;14.07;7.80;;;;;;;;;;6125078;23;20247;-90
2022/08/20 14:57:49;;;;;;;16.75;7.47;;;;;;;;;;6120742;23;20161;-89
2022/08/20 15:00:58;;;;;;;10.57;7.47;;;;;;;;;;6121572;23;20173;-92
2022/08/20 15:04:03;;;;;;;12.35;7.40;;;;;;;;;;6119993;23;20253;-90
2022/08/20 15:07:14;;;;;;;14.18;8.68;;;;;;;;;;6120309;23;20302;-89
2022/08/20 15:10:22;;;;;;;12.73;8.02;;;;;;;;;;6118569;23;20169;-90
2022/08/20 15:13:27;;;;;;;12.23;7.40;;;;;;;;;;6118952;23;20184;-90
2022/08/20 15:16:32;;;;;;;11.27;7.75;;;;;;;;;;6120252;23;20192;-91
2022/08/20 15:19:39;;;;;;;14.40;7.88;;;;;;;;;;6120958;23;20597;-90
2022/08/20 15:22:44;;;;;;;12.70;8.30;;;;;;;;;;6122730;23;20621;-91
2022/08/20 15:25:51;;;;;;;15.45;8.50;;;;;;;;;;6117851;23;20173;-91
2022/08/20 15:28:57;;;;;;;10.45;7.63;;;;;;;;;;6119426;23;20169;-90
2022/08/20 15:32:02;;;;;;;13.98;8.13;;;;;;;;;;6118997;23;20169;-91
2022/08/20 15:35:10;;;;;;;13.02;8.45;;;;;;;;;;6119739;23;20177;-90
2022/08/20 15:38:14;;;;;;;12.98;8.50;;;;;;;;;;6121071;23;20200;-91
2022/08/20 15:41:21;;;;;;;14.32;9.00;;;;;;;;;;6122331;23;20234;-93
2022/08/20 15:44:26;;;;;;;13.93;8.57;;;;;;;;;;6119610;23;20172;-90
2022/08/20 15:48:05;;;;;;;13.65;7.63;;;;;;;;;;6122523;23;20173;-91
2022/08/20 15:51:32;;;;;;;13.80;7.63;;;;;;;;;;6120808;23;20250;-90
2022/08/20 15:54:38;;;;;;;12.25;7.68;;;;;;;;;;6124460;23;20295;-91
2022/08/20 15:57:50;;;;;;;14.18;8.07;;;;;;;;;;6123498;23;20169;-91
2022/08/20 16:00:58;;;;;;;10.52;7.45;;;;;;;;;;6125139;23;20173;-89
2022/08/20 16:04:16;;;;;;;10.70;7.45;;;;;;;;;;6122952;23;20251;-89
2022/08/20 16:07:25;;;;;;;15.07;9.00;;;;;;;;;;6131221;23;20213;-90
2022/08/20 16:10:35;;;;;;;13.65;8.35;;;;;;;;;;6126325;23;20173;-89
2022/08/20 16:13:45;;;;;;;14.27;8.82;;;;;;;;;;6120687;23;20174;-90
2022/08/20 16:16:52;;;;;;;13.00;8.30;;;;;;;;;;6121786;23;20601;-88
2022/08/20 16:20:00;;;;;;;16.27;9.40;;;;;;;;;;6123798;23;20316;-88
2022/08/20 16:23:10;;;;;;;13.57;8.40;;;;;;;;;;6123296;23;20173;-90
2022/08/20 16:26:22;;;;;;;12.82;8.35;;;;;;;;;;6123933;23;20172;-92
2022/08/20 16:29:34;;;;;;;14.68;9.00;;;;;;;;;;6123002;23;20189;-90
2022/08/20 16:32:41;;;;;;;14.27;9.43;;;;;;;;;;6122540;23;20685;-89
2022/08/20 16:35:52;;;;;;;12.65;9.15;;;;;;;;;;6122662;23;20177;-90
2022/08/20 16:38:59;;;;;;;15.05;9.82;;;;;;;;;;6120119;23;20632;-90
2022/08/20 16:42:07;;;;;;;16.33;10.13;;;;;;;;;;6120070;23;20192;-89
2022/08/20 16:45:17;;;;;;;17.35;10.15;;;;;;;;;;6119687;23;20173;-89
2022/08/20 16:48:23;;;;;;;15.48;10.40;;;;;;;;;;6120813;23;20177;-88
2022/08/20 16:51:34;;;;;;;18.15;10.10;;;;;;;;;;6118587;23;20173;-89
2022/08/20 16:54:43;;;;;;;14.55;9.88;;;;;;;;;;6115621;23;20250;-87
2022/08/20 16:57:48;;;;;;;16.65;10.40;;;;;;;;;;6116949;23;20510;-89
2022/08/20 17:01:06;;;;;;;14.27;9.07;;;;;;;;;;6116986;23;20613;-87
2022/08/20 17:04:19;;;;;;;22.33;12.63;;;;;;;;;;6118236;23;20248;-88
2022/08/20 17:07:25;;;;;;;26.13;13.15;;;;;;;;;;6116498;23;20520;-88
2022/08/20 17:10:32;;;;;;;32.47;16.52;;;;;;;;;;6114887;23;20185;-88
2022/08/20 17:13:39;;;;;;;20.15;11.45;;;;;;;;;;6115568;23;20689;-88
2022/08/20 17:16:46;;;;;;;15.40;9.65;;;;;;;;;;6116860;23;20527;-87
2022/08/20 17:19:53;;;;;;;14.90;9.00;;;;;;;;;;6116563;23;20196;-88
2022/08/20 17:23:09;;;;;;;14.05;9.05;;;;;;;;;;6118450;23;20173;-87
2022/08/20 17:26:20;;;;;;;15.00;8.70;;;;;;;;;;6116885;23;20173;-89
2022/08/20 17:29:26;;;;;;;13.40;8.43;;;;;;;;;;6118776;23;20173;-87
2022/08/20 17:32:33;;;;;;;15.00;9.68;;;;;;;;;;6117675;23;20238;-87
2022/08/20 17:35:40;;;;;;;12.75;9.18;;;;;;;;;;6116939;23;20176;-88
2022/08/20 17:38:47;;;;;;;13.38;8.27;;;;;;;;;;6117915;23;20321;-88
2022/08/20 17:41:57;;;;;;;14.18;8.88;;;;;;;;;;6120090;23;20241;-87
2022/08/20 17:45:05;;;;;;;19.05;9.30;;;;;;;;;;6117351;23;20274;-90
2022/08/20 17:48:20;;;;;;;16.42;9.43;;;;;;;;;;6136568;23;20246;-87
2022/08/20 17:51:28;;;;;;;15.27;9.55;;;;;;;;;;6117790;23;20245;-85
2022/08/20 17:54:36;;;;;;;13.77;9.63;;;;;;;;;;6119077;23;20177;-88
2022/08/20 17:57:44;;;;;;;15.70;9.50;;;;;;;;;;6118444;23;20177;-89
2022/08/20 18:00:49;;;;;;;14.00;9.27;;;;;;;;;;6118840;23;20525;-87
2022/08/20 18:03:56;;;;;;;21.33;12.57;;;;;;;;;;6118088;23;20177;-88
2022/08/20 18:07:05;;;;;;;22.40;14.85;;;;;;;;;;6119054;23;20173;-88
2022/08/20 18:10:12;;;;;;;21.05;13.32;;;;;;;;;;6120438;23;20209;-86
2022/08/20 18:13:19;;;;;;;16.15;11.30;;;;;;;;;;6119548;23;20174;-87
2022/08/20 18:16:29;;;;;;;13.40;9.38;;;;;;;;;;6120765;23;20212;-87
2022/08/20 18:19:48;;;;;;;17.70;9.95;;;;;;;;;;6117673;23;20533;-87
2022/08/20 18:22:55;;;;;;;13.52;9.30;;;;;;;;;;6118867;23;20598;-86
2022/08/20 18:26:03;;;;;;;15.63;9.30;;;;;;;;;;6121171;23;20241;-88
2022/08/20 18:29:09;;;;;;;14.85;9.35;;;;;;;;;;6117495;23;20233;-86
2022/08/20 18:32:25;;;;;;;13.00;9.45;;;;;;;;;;6117754;23;20184;-88
2022/08/20 18:35:37;;;;;;;15.40;9.60;;;;;;;;;;6119105;23;20173;-89
2022/08/20 18:38:42;;;;;;;14.52;9.38;;;;;;;;;;6137211;23;20193;-88
2022/08/20 18:41:56;;;;;;;39.35;13.15;;;;;;;;;;6120406;23;20273;-89
2022/08/20 18:45:02;;;;;;;21.90;11.23;;;;;;;;;;6117256;23;20282;-88
2022/08/20 18:48:20;;;;;;;23.23;11.68;;;;;;;;;;6116701;23;20185;-90
2022/08/20 18:51:29;;;;;;;22.20;12.48;;;;;;;;;;6120558;23;20177;-88
2022/08/20 18:54:35;;;;;;;25.13;12.80;;;;;;;;;;6120460;23;20214;-90
2022/08/20 18:57:41;;;;;;;18.48;12.05;;;;;;;;;;6118317;23;20169;-88
2022/08/20 19:00:50;;;;;;;21.58;12.45;;;;;;;;;;6119419;23;20193;-88
2022/08/20 19:03:57;;;;;;;26.33;14.07;;;;;;;;;;6120451;23;20153;-88
2022/08/20 19:07:05;;;;;;;28.73;13.25;;;;;;;;;;6120040;23;20173;-87
2022/08/20 19:10:35;;;;;;;22.00;13.27;;;;;;;;;;6119075;23;20213;-88
2022/08/20 19:13:48;;;;;;;21.45;12.35;;;;;;;;;;6118402;23;20224;-87
2022/08/20 19:16:56;;;;;;;20.80;12.95;;;;;;;;;;6118703;23;20264;-87
2022/08/20 19:20:02;;;;;;;20.55;13.38;;;;;;;;;;6119473;23;20200;-86
2022/08/20 19:23:13;;;;;;;24.52;13.60;;;;;;;;;;6116315;23;20181;-87
2022/08/20 19:26:20;;;;;;;22.63;13.20;;;;;;;;;;6120797;23;20610;-92
2022/08/20 19:29:28;;;;;;;27.83;13.77;;;;;;;;;;6119160;23;20182;-90
2022/08/20 19:32:34;;;;;;;26.83;15.43;;;;;;;;;;6119138;23;20166;-90
2022/08/20 19:35:39;;;;;;;20.42;13.30;;;;;;;;;;6121367;23;20260;-88
2022/08/20 19:38:47;;;;;;;20.90;13.20;;;;;;;;;;6119217;23;20209;-86
2022/08/20 19:41:55;;;;;;;19.60;13.57;;;;;;;;;;6119170;23;20201;-88
2022/08/20 19:45:02;;;;;;;20.77;13.30;;;;;;;;;;6117549;23;20173;-90
2022/08/20 19:48:14;;;;;;;26.30;14.27;;;;;;;;;;6117668;23;20244;-88
2022/08/20 19:51:24;;;;;;;31.15;18.50;;;;;;;;;;6119913;23;20173;-90
2022/08/20 19:54:31;;;;;;;29.02;18.52;;;;;;;;;;6137815;23;20173;-88
2022/08/20 19:57:38;;;;;;;22.15;13.40;;;;;;;;;;6121687;23;20245;-88
2022/08/20 20:00:44;;;;;;;21.52;12.75;;;;;;;;;;6121312;23;20196;-88
2022/08/20 20:03:58;;;;;;;27.65;13.75;;;;;;;;;;6118425;23;20190;-87
2022/08/20 20:07:02;;;;;;;28.02;14.85;;;;;;;;;;6121010;23;20217;-87
2022/08/20 20:10:11;;;;;;;26.65;15.73;;;;;;;;;;6119131;23;20600;-85
2022/08/20 20:13:18;;;;;;;26.10;15.15;;;;;;;;;;6117423;23;20249;-89
2022/08/20 20:16:24;;;;;;;27.00;14.60;;;;;;;;;;6119339;23;20193;-88
2022/08/20 20:19:28;;;;;;;22.00;15.40;;;;;;;;;;6118755;23;20775;-88
2022/08/20 20:22:35;;;;;;;28.13;16.58;;;;;;;;;;6118355;23;20219;-89
2022/08/20 20:25:42;;;;;;;27.23;15.90;;;;;;;;;;6118984;23;20169;-90
2022/08/20 20:28:48;;;;;;;26.77;15.27;;;;;;;;;;6119970;23;20620;-88
2022/08/20 20:31:55;;;;;;;27.23;16.63;;;;;;;;;;6121440;23;20174;-87
2022/08/20 20:35:02;;;;;;;26.50;16.15;;;;;;;;;;6119155;23;20181;-89
2022/08/20 20:38:09;;;;;;;28.35;17.30;;;;;;;;;;6119073;23;20231;-88
2022/08/20 20:41:21;;;;;;;28.80;16.35;;;;;;;;;;6119163;23;20197;-87
2022/08/20 20:44:27;;;;;;;29.50;17.55;;;;;;;;;;6135222;23;20214;-89
2022/08/20 20:47:33;;;;;;;28.52;17.08;;;;;;;;;;6119064;23;20169;-88
2022/08/20 20:50:39;;;;;;;25.45;15.98;;;;;;;;;;6118758;23;20504;-89
2022/08/20 20:53:46;;;;;;;28.42;16.23;;;;;;;;;;6118598;23;20265;-87
2022/08/20 20:56:59;;;;;;;31.25;16.23;;;;;;;;;;6119608;23;20169;-88
2022/08/20 21:00:05;;;;;;;26.80;15.88;;;;;;;;;;6118071;23;20197;-87
2022/08/20 21:03:10;;;;;;;30.73;16.73;;;;;;;;;;6119729;23;20173;-88
2022/08/20 21:06:14;;;;;;;28.13;17.30;;;;;;;;;;6118846;23;20279;-88
2022/08/20 21:09:20;;;;;;;31.58;18.05;;;;;;;;;;6134672;23;20177;-88
2022/08/20 21:12:26;;;;;;;32.15;17.70;;;;;;;;;;6117128;23;20177;-88
2022/08/20 21:15:32;;;;;;;31.58;17.77;;;;;;;;;;6119066;23;20333;-87
2022/08/20 21:18:42;;;;;;;28.88;17.63;;;;;;;;;;6118829;23;20730;-89
2022/08/20 21:21:47;;;;;;;29.02;17.75;;;;;;;;;;6117481;23;20273;-90
2022/08/20 21:24:52;;;;;;;35.30;20.92;;;;;;;;;;6115801;23;20214;-88
2022/08/20 21:27:59;;;;;;;30.25;19.60;;;;;;;;;;6117078;23;20153;-86
2022/08/20 21:31:04;;;;;;;34.63;20.60;;;;;;;;;;6119787;23;20172;-88
2022/08/20 21:34:09;;;;;;;33.45;20.35;;;;;;;;;;6118551;23;20169;-88
2022/08/20 21:37:15;;;;;;;35.97;21.35;;;;;;;;;;6118237;23;20192;-87
2022/08/20 21:40:20;;;;;;;31.77;19.77;;;;;;;;;;6119523;23;20915;-87
2022/08/20 21:43:28;;;;;;;26.95;17.27;;;;;;;;;;6117412;23;20240;-87
2022/08/20 21:46:33;;;;;;;27.42;15.48;;;;;;;;;;6117674;23;20169;-87
2022/08/20 21:49:38;;;;;;;24.45;14.98;;;;;;;;;;6118459;23;20166;-87
2022/08/20 21:52:43;;;;;;;22.05;15.20;;;;;;;;;;6116739;23;20248;-88
2022/08/20 21:55:48;;;;;;;26.65;15.93;;;;;;;;;;6117630;23;20174;-88
2022/08/20 21:58:55;;;;;;;26.55;17.17;;;;;;;;;;6115449;23;20234;-87
2022/08/20 22:02:06;;;;;;;24.35;16.45;;;;;;;;;;6117520;23;20165;-88
2022/08/20 22:05:12;;;;;;;21.77;14.73;;;;;;;;;;6117528;23;20173;-87
2022/08/20 22:08:17;;;;;;;21.55;14.07;;;;;;;;;;6134336;23;20165;-88
2022/08/20 22:11:22;;;;;;;21.65;13.85;;;;;;;;;;6117603;23;20173;-88
2022/08/20 22:14:29;;;;;;;20.30;14.13;;;;;;;;;;6115761;23;20182;-90
2022/08/20 22:17:35;;;;;;;21.13;13.52;;;;;;;;;;6116446;23;20331;-86
2022/08/20 22:20:40;;;;;;;21.65;14.25;;;;;;;;;;6116777;23;20539;-88
2022/08/20 22:23:46;;;;;;;20.60;13.93;;;;;;;;;;6117618;23;20244;-88
2022/08/20 22:26:51;;;;;;;17.75;12.73;;;;;;;;;;6116467;23;20169;-89
2022/08/20 22:29:57;;;;;;;21.50;13.60;;;;;;;;;;6116583;23;20583;-86
2022/08/20 22:33:03;;;;;;;24.25;13.50;;;;;;;;;;6114061;23;20170;-89
2022/08/20 22:36:09;;;;;;;20.95;13.45;;;;;;;;;;6116523;23;20157;-87
2022/08/20 22:39:14;;;;;;;18.83;12.52;;;;;;;;;;6116498;23;20173;-86
2022/08/20 22:42:19;;;;;;;17.67;11.02;;;;;;;;;;6114668;23;20177;-88
2022/08/20 22:45:25;;;;;;;17.17;11.15;;;;;;;;;;6133434;23;20208;-88
2022/08/20 22:48:30;;;;;;;20.38;12.95;;;;;;;;;;6113890;23;20169;-90